sensor_id;sensor_type;location;lat;lon;timestamp;pressure;altitude;pressure_sealevel;temperature;humidity
32131;BME280;18639;50.716;7.086;2023-05-20T00:01:31;100974.38;;;12.24;100.00
32131;BME280;18639;50.716;7.086;2023-05-20T00:03:56;100990.31;;;12.32;100.00
32131;BME280;18639;50.716;7.086;2023-05-20T00:06:22;100922.25;;;11.88;100.00
32131;BME280;18639;50.716;7.086;2023-05-20T00:08:47;100975.03;;;12.13;100.00
32131;BME280;18639;50.716;7.086;2023-05-20T00:11:12;100993.94;;;12.15;100.00
32131;BME280;18639;50.716;7.086;2023-05-20T00:13:38;100995.69;;;12.15;100.00
32131;BME280;18639;50.716;7.086;2023-05-20T00:16:04;100994.50;;;12.06;100.00
32131;BME280;18639;50.716;7.086;2023-05-20T00:18:29;100979.31;;;12.00;100.00
32131;BME280;18639;50.716;7.086;2023-05-20T00:20:56;100990.53;;;12.01;100.00
32131;BME280;18639;50.716;7.086;2023-05-20T00:23:22;100951.63;;;11.72;100.00
32131;BME280;18639;50.716;7.086;2023-05-20T00:25:47;100976.34;;;11.92;100.00
32131;BME280;18639;50.716;7.086;2023-05-20T00:28:12;100971.63;;;11.85;100.00
32131;BME280;18639;50.716;7.086;2023-05-20T00:30:40;100949.09;;;11.71;100.00
32131;BME280;18639;50.716;7.086;2023-05-20T00:33:06;100982.56;;;11.90;100.00
32131;BME280;18639;50.716;7.086;2023-05-20T00:35:31;100982.63;;;11.88;100.00
32131;BME280;18639;50.716;7.086;2023-05-20T00:37:57;100972.47;;;11.85;100.00
32131;BME280;18639;50.716;7.086;2023-05-20T00:40:22;100973.19;;;11.87;100.00
32131;BME280;18639;50.716;7.086;2023-05-20T00:42:49;100965.97;;;11.78;100.00
32131;BME280;18639;50.716;7.086;2023-05-20T00:45:14;100936.16;;;11.57;100.00
32131;BME280;18639;50.716;7.086;2023-05-20T00:47:40;100967.09;;;11.74;100.00
32131;BME280;18639;50.716;7.086;2023-05-20T00:50:06;100950.66;;;11.59;100.00
32131;BME280;18639;50.716;7.086;2023-05-20T00:52:33;100954.09;;;11.60;100.00
32131;BME280;18639;50.716;7.086;2023-05-20T00:54:59;100952.53;;;11.57;100.00
32131;BME280;18639;50.716;7.086;2023-05-20T00:57:25;100947.78;;;11.50;100.00
32131;BME280;18639;50.716;7.086;2023-05-20T00:59:50;100947.63;;;11.53;100.00
32131;BME280;18639;50.716;7.086;2023-05-20T01:02:16;100941.78;;;11.49;100.00
32131;BME280;18639;50.716;7.086;2023-05-20T01:04:41;100940.94;;;11.49;100.00
32131;BME280;18639;50.716;7.086;2023-05-20T01:07:12;100957.63;;;11.59;100.00
32131;BME280;18639;50.716;7.086;2023-05-20T01:09:38;100949.47;;;11.51;100.00
32131;BME280;18639;50.716;7.086;2023-05-20T01:12:17;100948.47;;;11.53;100.00
32131;BME280;18639;50.716;7.086;2023-05-20T01:15:06;100954.63;;;11.51;100.00
32131;BME280;18639;50.716;7.086;2023-05-20T01:17:35;100950.50;;;11.48;100.00
32131;BME280;18639;50.716;7.086;2023-05-20T01:20:02;100948.91;;;11.46;100.00
32131;BME280;18639;50.716;7.086;2023-05-20T01:22:29;100953.25;;;11.45;100.00
32131;BME280;18639;50.716;7.086;2023-05-20T01:24:55;100934.91;;;11.34;100.00
32131;BME280;18639;50.716;7.086;2023-05-20T01:27:22;100955.19;;;11.42;100.00
32131;BME280;18639;50.716;7.086;2023-05-20T01:29:49;100949.25;;;11.39;100.00
32131;BME280;18639;50.716;7.086;2023-05-20T01:32:23;100929.16;;;11.29;100.00
32131;BME280;18639;50.716;7.086;2023-05-20T01:34:50;100902.44;;;11.14;100.00
32131;BME280;18639;50.716;7.086;2023-05-20T01:37:17;100929.25;;;11.27;100.00
32131;BME280;18639;50.716;7.086;2023-05-20T01:39:43;100937.69;;;11.31;100.00
32131;BME280;18639;50.716;7.086;2023-05-20T01:42:09;100904.63;;;11.06;100.00
32131;BME280;18639;50.716;7.086;2023-05-20T01:44:36;100943.97;;;11.27;100.00
32131;BME280;18639;50.716;7.086;2023-05-20T01:47:01;100923.91;;;11.16;100.00
32131;BME280;18639;50.716;7.086;2023-05-20T01:49:26;100914.81;;;11.09;100.00
32131;BME280;18639;50.716;7.086;2023-05-20T01:51:52;100880.94;;;10.84;100.00
32131;BME280;18639;50.716;7.086;2023-05-20T01:54:17;100942.56;;;11.21;100.00
32131;BME280;18639;50.716;7.086;2023-05-20T01:56:44;100941.81;;;11.19;100.00
32131;BME280;18639;50.716;7.086;2023-05-20T01:59:10;100936.44;;;11.22;100.00
32131;BME280;18639;50.716;7.086;2023-05-20T02:01:35;100932.72;;;11.12;100.00
32131;BME280;18639;50.716;7.086;2023-05-20T02:04:00;100901.75;;;10.96;100.00
32131;BME280;18639;50.716;7.086;2023-05-20T02:06:26;100927.91;;;11.06;100.00
32131;BME280;18639;50.716;7.086;2023-05-20T02:08:51;100929.41;;;11.10;100.00
32131;BME280;18639;50.716;7.086;2023-05-20T02:11:16;100916.25;;;10.99;100.00
32131;BME280;18639;50.716;7.086;2023-05-20T02:13:41;100918.28;;;10.94;100.00
32131;BME280;18639;50.716;7.086;2023-05-20T02:16:07;100914.94;;;10.92;100.00
32131;BME280;18639;50.716;7.086;2023-05-20T02:18:32;100916.59;;;10.93;100.00
32131;BME280;18639;50.716;7.086;2023-05-20T02:21:02;100886.88;;;10.70;100.00
32131;BME280;18639;50.716;7.086;2023-05-20T02:23:31;100922.78;;;10.90;100.00
32131;BME280;18639;50.716;7.086;2023-05-20T02:25:56;100912.97;;;10.81;100.00
32131;BME280;18639;50.716;7.086;2023-05-20T02:28:22;100938.38;;;10.89;100.00
32131;BME280;18639;50.716;7.086;2023-05-20T02:30:47;100924.97;;;10.82;100.00
32131;BME280;18639;50.716;7.086;2023-05-20T02:33:15;100908.56;;;10.68;100.00
32131;BME280;18639;50.716;7.086;2023-05-20T02:35:40;100910.97;;;10.71;100.00
32131;BME280;18639;50.716;7.086;2023-05-20T02:38:05;100906.81;;;10.68;100.00
32131;BME280;18639;50.716;7.086;2023-05-20T02:40:31;100916.91;;;10.73;100.00
32131;BME280;18639;50.716;7.086;2023-05-20T02:42:56;100922.22;;;10.70;100.00
32131;BME280;18639;50.716;7.086;2023-05-20T02:45:22;100919.50;;;10.73;100.00
32131;BME280;18639;50.716;7.086;2023-05-20T02:47:47;100898.00;;;10.57;100.00
32131;BME280;18639;50.716;7.086;2023-05-20T02:50:12;100909.06;;;10.59;100.00
32131;BME280;18639;50.716;7.086;2023-05-20T02:52:37;100910.00;;;10.58;100.00
32131;BME280;18639;50.716;7.086;2023-05-20T02:55:06;100915.25;;;10.56;100.00
32131;BME280;18639;50.716;7.086;2023-05-20T02:57:32;100902.75;;;10.48;100.00
32131;BME280;18639;50.716;7.086;2023-05-20T02:59:59;100890.06;;;10.44;100.00
32131;BME280;18639;50.716;7.086;2023-05-20T03:02:24;100905.44;;;10.47;100.00
32131;BME280;18639;50.716;7.086;2023-05-20T03:04:49;100888.84;;;10.35;100.00
32131;BME280;18639;50.716;7.086;2023-05-20T03:07:17;100922.50;;;10.49;100.00
32131;BME280;18639;50.716;7.086;2023-05-20T03:09:45;100904.16;;;10.38;100.00
32131;BME280;18639;50.716;7.086;2023-05-20T03:12:10;100910.81;;;10.42;100.00
32131;BME280;18639;50.716;7.086;2023-05-20T03:14:36;100910.00;;;10.42;100.00
32131;BME280;18639;50.716;7.086;2023-05-20T03:17:01;100900.84;;;10.36;100.00
32131;BME280;18639;50.716;7.086;2023-05-20T03:19:26;100916.75;;;10.44;100.00
32131;BME280;18639;50.716;7.086;2023-05-20T03:21:51;100897.84;;;10.28;100.00
32131;BME280;18639;50.716;7.086;2023-05-20T03:24:17;100918.00;;;10.37;100.00
32131;BME280;18639;50.716;7.086;2023-05-20T03:26:42;100917.25;;;10.35;100.00
32131;BME280;18639;50.716;7.086;2023-05-20T03:29:08;100917.25;;;10.35;100.00
32131;BME280;18639;50.716;7.086;2023-05-20T03:31:34;100892.84;;;10.25;100.00
32131;BME280;18639;50.716;7.086;2023-05-20T03:33:59;100902.81;;;10.31;100.00
32131;BME280;18639;50.716;7.086;2023-05-20T03:36:25;100905.66;;;10.27;100.00
32131;BME280;18639;50.716;7.086;2023-05-20T03:38:50;100913.41;;;10.27;100.00
32131;BME280;18639;50.716;7.086;2023-05-20T03:41:15;100893.91;;;10.21;100.00
32131;BME280;18639;50.716;7.086;2023-05-20T03:43:41;100887.91;;;10.21;100.00
32131;BME280;18639;50.716;7.086;2023-05-20T03:46:06;100919.09;;;10.33;100.00
32131;BME280;18639;50.716;7.086;2023-05-20T03:48:31;100898.94;;;10.24;100.00
32131;BME280;18639;50.716;7.086;2023-05-20T03:50:56;100908.09;;;10.30;100.00
32131;BME280;18639;50.716;7.086;2023-05-20T03:53:22;100883.22;;;10.11;100.00
32131;BME280;18639;50.716;7.086;2023-05-20T03:55:47;100909.91;;;10.28;100.00
32131;BME280;18639;50.716;7.086;2023-05-20T03:58:13;100914.16;;;10.29;100.00
32131;BME280;18639;50.716;7.086;2023-05-20T04:00:40;100887.47;;;10.12;100.00
32131;BME280;18639;50.716;7.086;2023-05-20T04:03:05;100900.41;;;10.28;100.00
32131;BME280;18639;50.716;7.086;2023-05-20T04:05:31;100883.00;;;10.16;100.00
32131;BME280;18639;50.716;7.086;2023-05-20T04:07:56;100905.78;;;10.25;100.00
32131;BME280;18639;50.716;7.086;2023-05-20T04:10:21;100900.59;;;10.25;100.00
32131;BME280;18639;50.716;7.086;2023-05-20T04:12:47;100874.97;;;10.05;100.00
32131;BME280;18639;50.716;7.086;2023-05-20T04:15:12;100879.72;;;10.12;100.00
32131;BME280;18639;50.716;7.086;2023-05-20T04:17:39;100904.75;;;10.28;100.00
32131;BME280;18639;50.716;7.086;2023-05-20T04:20:05;100889.75;;;10.19;100.00
32131;BME280;18639;50.716;7.086;2023-05-20T04:22:31;100900.81;;;10.21;100.00
32131;BME280;18639;50.716;7.086;2023-05-20T04:24:57;100898.16;;;10.22;100.00
32131;BME280;18639;50.716;7.086;2023-05-20T04:27:23;100902.25;;;10.26;100.00
32131;BME280;18639;50.716;7.086;2023-05-20T04:29:50;100885.56;;;10.16;100.00
32131;BME280;18639;50.716;7.086;2023-05-20T04:32:18;100906.94;;;10.35;100.00
32131;BME280;18639;50.716;7.086;2023-05-20T04:34:44;100909.41;;;10.37;100.00
32131;BME280;18639;50.716;7.086;2023-05-20T04:37:10;100892.66;;;10.28;100.00
32131;BME280;18639;50.716;7.086;2023-05-20T04:39:36;100882.34;;;10.28;100.00
32131;BME280;18639;50.716;7.086;2023-05-20T04:42:02;100911.00;;;10.39;100.00
32131;BME280;18639;50.716;7.086;2023-05-20T04:44:29;100911.78;;;10.41;100.00
32131;BME280;18639;50.716;7.086;2023-05-20T04:46:55;100922.50;;;10.49;100.00
32131;BME280;18639;50.716;7.086;2023-05-20T04:49:22;100907.56;;;10.54;100.00
32131;BME280;18639;50.716;7.086;2023-05-20T04:51:50;100906.00;;;10.52;100.00
32131;BME280;18639;50.716;7.086;2023-05-20T04:54:15;100913.81;;;10.66;100.00
32131;BME280;18639;50.716;7.086;2023-05-20T04:56:42;100909.31;;;10.70;100.00
32131;BME280;18639;50.716;7.086;2023-05-20T04:59:08;100896.38;;;10.70;100.00
32131;BME280;18639;50.716;7.086;2023-05-20T05:01:34;100909.28;;;10.85;100.00
32131;BME280;18639;50.716;7.086;2023-05-20T05:04:00;100901.25;;;10.90;100.00
32131;BME280;18639;50.716;7.086;2023-05-20T05:06:25;100894.59;;;10.86;100.00
32131;BME280;18639;50.716;7.086;2023-05-20T05:08:50;100893.16;;;10.96;100.00
32131;BME280;18639;50.716;7.086;2023-05-20T05:11:16;100891.13;;;11.01;100.00
32131;BME280;18639;50.716;7.086;2023-05-20T05:13:41;100894.84;;;11.11;100.00
32131;BME280;18639;50.716;7.086;2023-05-20T05:16:06;100894.59;;;11.16;100.00
32131;BME280;18639;50.716;7.086;2023-05-20T05:18:31;100899.59;;;11.19;100.00
32131;BME280;18639;50.716;7.086;2023-05-20T05:21:01;100897.28;;;11.28;100.00
32131;BME280;18639;50.716;7.086;2023-05-20T05:23:26;100880.09;;;11.27;100.00
32131;BME280;18639;50.716;7.086;2023-05-20T05:25:52;100892.88;;;11.45;100.00
32131;BME280;18639;50.716;7.086;2023-05-20T05:28:17;100872.19;;;11.45;100.00
32131;BME280;18639;50.716;7.086;2023-05-20T05:30:43;100852.66;;;11.39;100.00
32131;BME280;18639;50.716;7.086;2023-05-20T05:33:08;100874.69;;;11.60;100.00
32131;BME280;18639;50.716;7.086;2023-05-20T05:35:33;100875.97;;;11.67;100.00
32131;BME280;18639;50.716;7.086;2023-05-20T05:37:58;100866.25;;;11.71;100.00
32131;BME280;18639;50.716;7.086;2023-05-20T05:40:24;100886.81;;;11.88;100.00
32131;BME280;18639;50.716;7.086;2023-05-20T05:42:49;100883.47;;;12.00;100.00
32131;BME280;18639;50.716;7.086;2023-05-20T05:45:15;100882.16;;;12.07;100.00
32131;BME280;18639;50.716;7.086;2023-05-20T05:47:41;100829.22;;;11.85;100.00
32131;BME280;18639;50.716;7.086;2023-05-20T05:50:07;100880.63;;;12.32;100.00
32131;BME280;18639;50.716;7.086;2023-05-20T05:52:32;100875.06;;;12.38;100.00
32131;BME280;18639;50.716;7.086;2023-05-20T05:54:57;100865.16;;;12.44;100.00
32131;BME280;18639;50.716;7.086;2023-05-20T05:57:23;100857.69;;;12.52;100.00
32131;BME280;18639;50.716;7.086;2023-05-20T05:59:48;100847.94;;;12.56;100.00
32131;BME280;18639;50.716;7.086;2023-05-20T06:02:13;100867.50;;;12.74;100.00
32131;BME280;18639;50.716;7.086;2023-05-20T06:04:39;100861.53;;;12.86;100.00
32131;BME280;18639;50.716;7.086;2023-05-20T06:07:04;100855.81;;;12.94;100.00
32131;BME280;18639;50.716;7.086;2023-05-20T06:09:29;100851.81;;;13.02;100.00
32131;BME280;18639;50.716;7.086;2023-05-20T06:11:55;100852.88;;;13.13;100.00
32131;BME280;18639;50.716;7.086;2023-05-20T06:14:20;100866.59;;;13.27;100.00
32131;BME280;18639;50.716;7.086;2023-05-20T06:16:46;100866.78;;;13.37;100.00
32131;BME280;18639;50.716;7.086;2023-05-20T06:19:11;100856.22;;;13.40;100.00
32131;BME280;18639;50.716;7.086;2023-05-20T06:21:36;100855.38;;;13.39;100.00
32131;BME280;18639;50.716;7.086;2023-05-20T06:24:03;100860.69;;;13.51;100.00
32131;BME280;18639;50.716;7.086;2023-05-20T06:26:28;100843.53;;;13.48;100.00
32131;BME280;18639;50.716;7.086;2023-05-20T06:28:53;100858.38;;;13.59;100.00
32131;BME280;18639;50.716;7.086;2023-05-20T06:31:18;100824.53;;;13.47;100.00
32131;BME280;18639;50.716;7.086;2023-05-20T06:33:44;100834.28;;;13.57;100.00
32131;BME280;18639;50.716;7.086;2023-05-20T06:36:09;100862.00;;;13.69;100.00
32131;BME280;18639;50.716;7.086;2023-05-20T06:38:35;100850.16;;;13.77;100.00
32131;BME280;18639;50.716;7.086;2023-05-20T06:41:00;100854.63;;;13.75;100.00
32131;BME280;18639;50.716;7.086;2023-05-20T06:43:26;100855.94;;;13.94;100.00
32131;BME280;18639;50.716;7.086;2023-05-20T06:45:52;100859.13;;;14.10;100.00
32131;BME280;18639;50.716;7.086;2023-05-20T06:48:18;100845.78;;;14.14;100.00
32131;BME280;18639;50.716;7.086;2023-05-20T06:50:43;100845.63;;;14.28;100.00
32131;BME280;18639;50.716;7.086;2023-05-20T06:53:09;100821.28;;;14.29;100.00
32131;BME280;18639;50.716;7.086;2023-05-20T06:55:36;100840.31;;;14.54;100.00
32131;BME280;18639;50.716;7.086;2023-05-20T06:58:01;100828.81;;;14.69;98.54
32131;BME280;18639;50.716;7.086;2023-05-20T07:00:27;100830.97;;;14.86;97.42
32131;BME280;18639;50.716;7.086;2023-05-20T07:02:52;100836.31;;;14.96;96.18
32131;BME280;18639;50.716;7.086;2023-05-20T07:05:17;100828.09;;;15.13;92.87
32131;BME280;18639;50.716;7.086;2023-05-20T07:07:43;100788.91;;;15.03;88.73
32131;BME280;18639;50.716;7.086;2023-05-20T07:10:08;100815.34;;;15.32;89.89
32131;BME280;18639;50.716;7.086;2023-05-20T07:12:33;100825.50;;;15.46;92.39
32131;BME280;18639;50.716;7.086;2023-05-20T07:14:58;100816.06;;;15.56;88.92
32131;BME280;18639;50.716;7.086;2023-05-20T07:17:24;100827.91;;;15.61;86.54
32131;BME280;18639;50.716;7.086;2023-05-20T07:19:50;100827.91;;;15.72;88.85
32131;BME280;18639;50.716;7.086;2023-05-20T07:22:16;100816.31;;;15.76;89.15
32131;BME280;18639;50.716;7.086;2023-05-20T07:24:41;100821.28;;;15.56;84.36
32131;BME280;18639;50.716;7.086;2023-05-20T07:27:06;100826.47;;;15.79;88.34
32131;BME280;18639;50.716;7.086;2023-05-20T07:29:33;100816.78;;;15.81;87.45
32131;BME280;18639;50.716;7.086;2023-05-20T07:31:58;100805.88;;;15.76;88.27
32131;BME280;18639;50.716;7.086;2023-05-20T07:34:23;100808.00;;;15.71;89.45
32131;BME280;18639;50.716;7.086;2023-05-20T07:36:49;100793.31;;;15.70;89.64
32131;BME280;18639;50.716;7.086;2023-05-20T07:39:15;100799.94;;;15.85;91.16
32131;BME280;18639;50.716;7.086;2023-05-20T07:41:40;100800.16;;;15.82;89.68
32131;BME280;18639;50.716;7.086;2023-05-20T07:44:06;100805.97;;;15.96;88.97
32131;BME280;18639;50.716;7.086;2023-05-20T07:46:33;100803.44;;;16.06;89.07
32131;BME280;18639;50.716;7.086;2023-05-20T07:48:58;100785.78;;;15.98;89.57
32131;BME280;18639;50.716;7.086;2023-05-20T07:51:24;100781.59;;;16.18;87.99
32131;BME280;18639;50.716;7.086;2023-05-20T07:53:49;100772.94;;;16.18;86.30
32131;BME280;18639;50.716;7.086;2023-05-20T07:56:15;100774.91;;;16.25;83.93
32131;BME280;18639;50.716;7.086;2023-05-20T07:58:40;100778.75;;;16.74;79.90
32131;BME280;18639;50.716;7.086;2023-05-20T08:01:06;100775.22;;;17.05;84.58
32131;BME280;18639;50.716;7.086;2023-05-20T08:03:33;100778.28;;;17.41;86.00
32131;BME280;18639;50.716;7.086;2023-05-20T08:05:58;100759.00;;;17.42;80.80
32131;BME280;18639;50.716;7.086;2023-05-20T08:08:24;100768.75;;;17.70;77.24
32131;BME280;18639;50.716;7.086;2023-05-20T08:10:50;100787.78;;;17.91;78.07
32131;BME280;18639;50.716;7.086;2023-05-20T08:13:16;100755.72;;;17.99;79.22
32131;BME280;18639;50.716;7.086;2023-05-20T08:15:41;100774.59;;;18.12;76.24
32131;BME280;18639;50.716;7.086;2023-05-20T08:18:06;100771.00;;;18.13;76.53
32131;BME280;18639;50.716;7.086;2023-05-20T08:20:31;100771.72;;;18.25;74.69
32131;BME280;18639;50.716;7.086;2023-05-20T08:22:57;100794.97;;;18.28;75.31
32131;BME280;18639;50.716;7.086;2023-05-20T08:25:22;100751.19;;;18.30;75.87
32131;BME280;18639;50.716;7.086;2023-05-20T08:27:47;100780.94;;;18.67;76.72
32131;BME280;18639;50.716;7.086;2023-05-20T08:30:13;100755.44;;;18.69;75.24
32131;BME280;18639;50.716;7.086;2023-05-20T08:32:38;100744.53;;;18.83;72.57
32131;BME280;18639;50.716;7.086;2023-05-20T08:35:03;100758.69;;;19.00;72.43
32131;BME280;18639;50.716;7.086;2023-05-20T08:37:29;100775.25;;;19.28;71.46
32131;BME280;18639;50.716;7.086;2023-05-20T08:39:54;100774.31;;;19.19;70.07
32131;BME280;18639;50.716;7.086;2023-05-20T08:42:23;100751.81;;;19.26;68.90
32131;BME280;18639;50.716;7.086;2023-05-20T08:44:51;100750.94;;;18.99;67.78
32131;BME280;18639;50.716;7.086;2023-05-20T08:47:18;100756.47;;;19.32;69.09
32131;BME280;18639;50.716;7.086;2023-05-20T08:49:43;100761.16;;;19.29;68.44
32131;BME280;18639;50.716;7.086;2023-05-20T08:52:10;100749.44;;;19.33;68.61
32131;BME280;18639;50.716;7.086;2023-05-20T08:54:45;100756.94;;;19.55;70.80
32131;BME280;18639;50.716;7.086;2023-05-20T08:57:11;100736.50;;;19.59;70.15
32131;BME280;18639;50.716;7.086;2023-05-20T08:59:41;100736.59;;;19.85;66.90
32131;BME280;18639;50.716;7.086;2023-05-20T09:02:07;100742.16;;;20.17;65.19
32131;BME280;18639;50.716;7.086;2023-05-20T09:04:33;100734.00;;;20.02;67.06
32131;BME280;18639;50.716;7.086;2023-05-20T09:06:58;100735.13;;;20.35;69.87
32131;BME280;18639;50.716;7.086;2023-05-20T09:09:23;100733.75;;;19.96;64.36
32131;BME280;18639;50.716;7.086;2023-05-20T09:11:49;100742.22;;;20.25;63.40
32131;BME280;18639;50.716;7.086;2023-05-20T09:14:14;100745.44;;;20.54;65.25
32131;BME280;18639;50.716;7.086;2023-05-20T09:16:39;100726.19;;;20.46;63.95
32131;BME280;18639;50.716;7.086;2023-05-20T09:19:05;100727.19;;;20.79;62.80
32131;BME280;18639;50.716;7.086;2023-05-20T09:21:31;100714.66;;;20.65;62.17
32131;BME280;18639;50.716;7.086;2023-05-20T09:24:00;100729.16;;;21.02;62.74
32131;BME280;18639;50.716;7.086;2023-05-20T09:26:27;100706.97;;;21.05;63.23
32131;BME280;18639;50.716;7.086;2023-05-20T09:28:55;100714.97;;;20.62;60.20
32131;BME280;18639;50.716;7.086;2023-05-20T09:31:25;100724.22;;;20.74;62.88
32131;BME280;18639;50.716;7.086;2023-05-20T09:33:50;100724.31;;;20.64;63.64
32131;BME280;18639;50.716;7.086;2023-05-20T09:36:16;100720.41;;;20.68;63.23
32131;BME280;18639;50.716;7.086;2023-05-20T09:38:44;100689.91;;;20.75;64.25
32131;BME280;18639;50.716;7.086;2023-05-20T09:41:12;100693.03;;;20.79;62.29
32131;BME280;18639;50.716;7.086;2023-05-20T09:43:39;100729.34;;;21.09;61.93
32131;BME280;18639;50.716;7.086;2023-05-20T09:46:06;100724.03;;;21.01;59.67
32131;BME280;18639;50.716;7.086;2023-05-20T09:48:33;100700.53;;;20.66;59.78
32131;BME280;18639;50.716;7.086;2023-05-20T09:51:00;100725.38;;;20.71;61.91
32131;BME280;18639;50.716;7.086;2023-05-20T09:53:26;100703.28;;;20.56;62.35
32131;BME280;18639;50.716;7.086;2023-05-20T09:55:53;100715.94;;;20.61;62.03
32131;BME280;18639;50.716;7.086;2023-05-20T09:58:19;100730.41;;;20.65;62.07
32131;BME280;18639;50.716;7.086;2023-05-20T10:00:45;100729.78;;;20.45;61.65
32131;BME280;18639;50.716;7.086;2023-05-20T10:03:11;100728.22;;;20.34;60.86
32131;BME280;18639;50.716;7.086;2023-05-20T10:05:40;100719.06;;;20.03;61.92
32131;BME280;18639;50.716;7.086;2023-05-20T10:11:39;100733.75;;;19.78;64.39
32131;BME280;18639;50.716;7.086;2023-05-20T10:14:33;100736.63;;;19.57;64.61
32131;BME280;18639;50.716;7.086;2023-05-20T10:17:16;100728.53;;;19.51;65.91
32131;BME280;18639;50.716;7.086;2023-05-20T10:19:43;100726.97;;;19.58;65.98
32131;BME280;18639;50.716;7.086;2023-05-20T10:22:09;100698.88;;;19.50;66.63
32131;BME280;18639;50.716;7.086;2023-05-20T10:24:40;100719.72;;;19.69;65.93
32131;BME280;18639;50.716;7.086;2023-05-20T10:27:10;100708.69;;;19.66;66.76
32131;BME280;18639;50.716;7.086;2023-05-20T10:29:48;100681.28;;;19.60;66.33
32131;BME280;18639;50.716;7.086;2023-05-20T10:32:28;100706.69;;;19.60;65.47
32131;BME280;18639;50.716;7.086;2023-05-20T10:35:04;100730.28;;;19.60;66.13
32131;BME280;18639;50.716;7.086;2023-05-20T10:37:40;100730.88;;;19.71;65.95
32131;BME280;18639;50.716;7.086;2023-05-20T10:40:10;100717.88;;;19.80;63.14
32131;BME280;18639;50.716;7.086;2023-05-20T10:42:37;100717.19;;;19.60;66.25
32131;BME280;18639;50.716;7.086;2023-05-20T10:45:03;100694.91;;;19.46;66.77
32131;BME280;18639;50.716;7.086;2023-05-20T10:47:29;100701.38;;;19.69;66.14
32131;BME280;18639;50.716;7.086;2023-05-20T10:49:55;100712.47;;;19.99;67.70
32131;BME280;18639;50.716;7.086;2023-05-20T10:52:20;100706.63;;;20.40;69.39
32131;BME280;18639;50.716;7.086;2023-05-20T10:54:47;100709.75;;;20.44;63.68
32131;BME280;18639;50.716;7.086;2023-05-20T10:57:12;100678.72;;;20.39;64.04
32131;BME280;18639;50.716;7.086;2023-05-20T10:59:38;100703.97;;;20.92;64.95
32131;BME280;18639;50.716;7.086;2023-05-20T11:02:03;100697.47;;;21.12;63.04
32131;BME280;18639;50.716;7.086;2023-05-20T11:04:29;100708.13;;;21.11;59.82
32131;BME280;18639;50.716;7.086;2023-05-20T11:06:55;100688.66;;;21.21;61.78
32131;BME280;18639;50.716;7.086;2023-05-20T11:09:22;100674.97;;;21.10;61.11
32131;BME280;18639;50.716;7.086;2023-05-20T11:11:49;100702.53;;;21.31;59.67
32131;BME280;18639;50.716;7.086;2023-05-20T11:14:15;100678.81;;;21.15;59.25
32131;BME280;18639;50.716;7.086;2023-05-20T11:16:42;100641.31;;;20.71;59.84
32131;BME280;18639;50.716;7.086;2023-05-20T11:19:08;100681.56;;;20.80;60.05
32131;BME280;18639;50.716;7.086;2023-05-20T11:21:33;100703.63;;;20.87;61.33
32131;BME280;18639;50.716;7.086;2023-05-20T11:23:59;100639.91;;;20.51;61.30
32131;BME280;18639;50.716;7.086;2023-05-20T11:26:24;100679.75;;;20.80;60.21
32131;BME280;18639;50.716;7.086;2023-05-20T11:28:50;100680.84;;;20.70;61.55
32131;BME280;18639;50.716;7.086;2023-05-20T11:31:17;100664.66;;;20.31;63.02
32131;BME280;18639;50.716;7.086;2023-05-20T11:33:42;100674.66;;;20.27;63.31
32131;BME280;18639;50.716;7.086;2023-05-20T11:36:08;100679.84;;;20.19;63.46
32131;BME280;18639;50.716;7.086;2023-05-20T11:38:34;100679.22;;;20.25;65.70
32131;BME280;18639;50.716;7.086;2023-05-20T11:40:59;100681.69;;;20.44;64.52
32131;BME280;18639;50.716;7.086;2023-05-20T11:43:24;100665.22;;;20.34;64.07
32131;BME280;18639;50.716;7.086;2023-05-20T11:45:54;100655.44;;;20.44;65.98
32131;BME280;18639;50.716;7.086;2023-05-20T11:48:20;100672.59;;;20.56;64.31
32131;BME280;18639;50.716;7.086;2023-05-20T11:50:47;100670.03;;;20.47;63.58
32131;BME280;18639;50.716;7.086;2023-05-20T11:53:21;100660.91;;;20.51;64.86
32131;BME280;18639;50.716;7.086;2023-05-20T11:55:52;100664.25;;;20.61;65.16
32131;BME280;18639;50.716;7.086;2023-05-20T11:58:19;100649.88;;;20.47;63.26
32131;BME280;18639;50.716;7.086;2023-05-20T12:00:45;100649.66;;;20.41;65.28
32131;BME280;18639;50.716;7.086;2023-05-20T12:03:11;100632.78;;;20.43;66.66
32131;BME280;18639;50.716;7.086;2023-05-20T12:05:37;100651.94;;;20.62;66.23
32131;BME280;18639;50.716;7.086;2023-05-20T12:08:02;100650.03;;;20.46;63.98
32131;BME280;18639;50.716;7.086;2023-05-20T12:10:28;100632.47;;;20.46;65.79
32131;BME280;18639;50.716;7.086;2023-05-20T12:12:53;100639.69;;;20.44;64.32
32131;BME280;18639;50.716;7.086;2023-05-20T12:15:18;100635.56;;;20.42;63.71
32131;BME280;18639;50.716;7.086;2023-05-20T12:17:48;100649.16;;;20.37;65.28
32131;BME280;18639;50.716;7.086;2023-05-20T12:20:15;100636.50;;;20.15;64.70
32131;BME280;18639;50.716;7.086;2023-05-20T12:22:42;100621.31;;;20.01;66.72
32131;BME280;18639;50.716;7.086;2023-05-20T12:25:10;100617.97;;;19.91;64.17
32131;BME280;18639;50.716;7.086;2023-05-20T12:27:36;100614.28;;;19.84;65.00
32131;BME280;18639;50.716;7.086;2023-05-20T12:30:01;100644.31;;;20.07;64.31
32131;BME280;18639;50.716;7.086;2023-05-20T12:32:26;100611.78;;;20.00;67.22
32131;BME280;18639;50.716;7.086;2023-05-20T12:34:51;100639.94;;;20.15;64.99
32131;BME280;18639;50.716;7.086;2023-05-20T12:37:17;100599.59;;;19.91;65.94
32131;BME280;18639;50.716;7.086;2023-05-20T12:39:42;100620.34;;;20.02;67.57
32131;BME280;18639;50.716;7.086;2023-05-20T12:42:07;100626.81;;;19.90;67.13
32131;BME280;18639;50.716;7.086;2023-05-20T12:44:33;100632.13;;;19.98;66.48